Time;durP1;ratioP1;P1;durP2;ratioP2;P2;SDS_P1;SDS_P2;PMS_P1;PMS_P2;Temp;Humidity;BMP_temperature;BMP_pressure;BME280_temperature;BME280_humidity;BME280_pressure;Samples;Min_cycle;Max_cycle;Signal;HPM_P1;HPM_P2
2024/03/30 00:00:28;;;;;;;12.10;6.20;;;;;;;13.56;55.59;98049.67;239111;180;138146;-55
2024/03/30 00:06:02;;;;;;;17.20;6.60;;;;;;;13.52;55.81;98050.62;239071;180;155126;-56
2024/03/30 00:11:05;;;;;;;14.60;7.00;;;;;;;13.46;55.94;98053.63;239108;180;136886;-55
2024/03/30 00:16:09;;;;;;;13.20;6.30;;;;;;;13.41;56.11;98051.95;239056;180;136866;-57
2024/03/30 00:21:16;;;;;;;12.40;5.90;;;;;;;13.37;56.37;98053.21;239077;180;153730;-57
2024/03/30 00:26:19;;;;;;;10.70;5.80;;;;;;;13.33;56.52;98053.93;239065;180;136979;-57
2024/03/30 00:31:25;;;;;;;15.80;6.30;;;;;;;13.29;56.72;98059.13;239065;180;138412;-58
2024/03/30 00:36:28;;;;;;;11.50;6.10;;;;;;;13.22;57.05;98055.01;238881;180;151474;-57
2024/03/30 00:41:31;;;;;;;11.00;5.50;;;;;;;13.16;57.34;98050.25;239140;180;137733;-57
2024/03/30 00:46:34;;;;;;;14.20;5.80;;;;;;;13.09;57.53;98045.36;239004;180;138357;-56
2024/03/30 00:51:37;;;;;;;15.10;5.40;;;;;;;13.03;57.79;98042.65;239137;180;152128;-56
2024/03/30 00:56:39;;;;;;;13.30;5.20;;;;;;;12.98;58.19;98043.27;238775;176;137872;-55
2024/03/30 01:01:42;;;;;;;12.30;5.40;;;;;;;12.91;58.34;98043.86;238934;180;136907;-55
2024/03/30 01:06:46;;;;;;;11.10;5.00;;;;;;;12.86;58.66;98041.48;239057;180;151856;-57
2024/03/30 01:11:49;;;;;;;13.60;4.90;;;;;;;12.80;58.85;98040.40;239132;180;137784;-57
2024/03/30 01:16:52;;;;;;;9.50;5.10;;;;;;;12.72;58.95;98032.48;239140;180;136892;-57
2024/03/30 01:21:56;;;;;;;11.70;4.70;;;;;;;12.68;59.15;98029.15;239121;180;152389;-57
2024/03/30 01:27:01;;;;;;;14.90;5.20;;;;;;;12.60;59.57;98027.38;239088;180;137739;-57
2024/03/30 01:32:04;;;;;;;10.40;4.80;;;;;;;12.50;59.89;98032.12;239071;176;136915;-56
2024/03/30 01:37:07;;;;;;;13.40;5.60;;;;;;;12.45;60.21;98025.23;239151;180;151103;-57
2024/03/30 01:42:10;;;;;;;13.20;5.60;;;;;;;12.38;60.40;98026.57;239007;180;139410;-56
2024/03/30 01:47:13;;;;;;;10.60;5.00;;;;;;;12.35;60.80;98019.00;239171;180;138656;-56
2024/03/30 01:52:20;;;;;;;15.40;5.50;;;;;;;12.30;61.03;98021.19;238348;180;152069;-57
2024/03/30 01:57:25;;;;;;;14.40;6.50;;;;;;;12.29;61.20;98028.79;239045;180;138270;-57
2024/03/30 02:02:28;;;;;;;12.20;6.10;;;;;;;12.23;61.48;98026.94;238961;180;137440;-56
2024/03/30 02:07:32;;;;;;;12.60;5.50;;;;;;;12.21;61.80;98027.14;239122;180;151219;-56
2024/03/30 02:12:35;;;;;;;12.80;5.10;;;;;;;12.15;62.05;98025.73;238765;180;138408;-57
2024/03/30 02:17:38;;;;;;;18.60;5.50;;;;;;;12.10;62.26;98026.13;239050;180;137796;-57
2024/03/30 02:22:54;;;;;;;12.90;6.50;;;;;;;12.04;62.38;98030.11;239149;180;151317;-57
2024/03/30 02:27:57;;;;;;;14.10;6.00;;;;;;;12.03;62.51;98039.54;238949;180;140812;-56
2024/03/30 02:33:01;;;;;;;14.70;6.00;;;;;;;11.97;62.61;98037.88;239004;176;141314;-55
2024/03/30 02:38:04;;;;;;;12.00;5.50;;;;;;;11.93;62.71;98038.23;239059;180;151382;-56
2024/03/30 02:43:07;;;;;;;19.30;6.20;;;;;;;11.89;62.94;98044.58;239079;180;140556;-57
2024/03/30 02:48:10;;;;;;;23.50;6.40;;;;;;;11.81;62.88;98039.67;239166;180;136816;-56
2024/03/30 02:53:13;;;;;;;20.00;6.70;;;;;;;11.74;62.77;98044.73;239076;180;153040;-56
2024/03/30 02:58:16;;;;;;;17.70;6.90;;;;;;;11.67;62.71;98035.94;239117;177;137004;-55
2024/03/30 03:03:19;;;;;;;22.80;7.60;;;;;;;11.56;62.87;98038.06;239054;180;137652;-57
2024/03/30 03:08:27;;;;;;;24.80;7.10;;;;;;;11.48;62.99;98049.89;239078;180;151700;-57
2024/03/30 03:13:30;;;;;;;29.70;7.80;;;;;;;11.42;63.10;98053.23;239041;181;136712;-57
2024/03/30 03:18:33;;;;;;;27.50;7.50;;;;;;;11.38;63.16;98062.08;238975;180;138104;-56
2024/03/30 03:23:38;;;;;;;24.40;7.60;;;;;;;11.32;63.18;98062.95;239044;180;151347;-56
2024/03/30 03:28:41;;;;;;;25.10;8.30;;;;;;;11.23;63.09;98063.10;239048;180;139518;-56
2024/03/30 03:33:43;;;;;;;29.80;9.20;;;;;;;11.13;63.00;98057.34;239084;180;136843;-57
2024/03/30 03:38:47;;;;;;;31.00;8.90;;;;;;;11.06;63.04;98054.67;239158;180;153104;-57
2024/03/30 03:43:49;;;;;;;30.10;9.20;;;;;;;11.01;63.24;98054.95;238929;180;136962;-57
2024/03/30 03:48:52;;;;;;;18.40;8.30;;;;;;;10.92;63.48;98058.81;238965;180;136501;-57
2024/03/30 03:53:56;;;;;;;20.10;8.30;;;;;;;10.85;63.60;98058.17;239076;180;151893;-57
2024/03/30 03:58:59;;;;;;;22.50;8.40;;;;;;;10.79;63.92;98054.56;239106;180;137139;-57
2024/03/30 04:04:02;;;;;;;13.50;7.00;;;;;;;10.76;64.03;98057.42;239066;180;137707;-56
2024/03/30 04:09:05;;;;;;;12.50;7.60;;;;;;;10.73;64.19;98056.09;239106;180;152154;-57
2024/03/30 04:14:08;;;;;;;14.90;7.30;;;;;;;10.69;64.26;98062.08;238999;180;137841;-54
2024/03/30 04:19:17;;;;;;;13.50;7.10;;;;;;;10.67;64.34;98072.85;239082;180;137761;-57
2024/03/30 04:24:20;;;;;;;15.50;7.10;;;;;;;10.64;64.34;98071.86;239080;180;151316;-55
2024/03/30 04:29:23;;;;;;;16.90;7.20;;;;;;;10.62;64.54;98070.03;239047;180;137115;-53
2024/03/30 04:34:26;;;;;;;16.80;7.00;;;;;;;10.62;64.65;98072.73;239054;178;137522;-56
2024/03/30 04:39:29;;;;;;;12.80;6.50;;;;;;;10.62;64.77;98073.40;238941;180;151390;-55
2024/03/30 04:44:32;;;;;;;17.60;6.90;;;;;;;10.70;64.71;98071.26;239160;180;137993;-55
2024/03/30 04:49:35;;;;;;;15.10;6.80;;;;;;;10.81;64.60;98067.34;238996;180;137180;-57
2024/03/30 04:54:38;;;;;;;17.30;7.10;;;;;;;10.83;64.50;98063.41;239189;177;151990;-55
2024/03/30 04:59:41;;;;;;;19.30;7.60;;;;;;;10.87;64.52;98067.02;239050;180;137612;-57
2024/03/30 05:04:44;;;;;;;20.50;6.90;;;;;;;10.89;64.53;98071.50;239087;180;137430;-57
2024/03/30 05:09:47;;;;;;;30.00;8.70;;;;;;;10.86;64.64;98081.81;239096;180;151239;-55
2024/03/30 05:14:51;;;;;;;40.30;10.20;;;;;;;10.85;64.76;98083.30;239101;180;137574;-58
2024/03/30 05:25:17;;;;;;;28.00;8.40;;;;;;;10.92;64.80;98076.08;239000;180;151154;-55
2024/03/30 05:30:21;;;;;;;27.00;8.10;;;;;;;10.98;65.11;98072.02;239096;180;140865;-57
2024/03/30 05:35:24;;;;;;;23.20;8.20;;;;;;;11.05;65.03;98080.70;239116;180;137069;-57
2024/03/30 05:40:27;;;;;;;19.90;8.30;;;;;;;11.12;65.13;98082.44;239156;180;151458;-57
2024/03/30 05:45:31;;;;;;;22.20;8.30;;;;;;;11.20;65.31;98077.20;239061;180;137575;-57
2024/03/30 05:50:35;;;;;;;22.10;8.00;;;;;;;11.31;65.33;98070.45;239154;180;138526;-56
2024/03/30 05:55:38;;;;;;;22.00;8.70;;;;;;;11.48;65.41;98078.86;238959;173;151365;-57
2024/03/30 06:00:41;;;;;;;20.10;7.00;;;;;;;11.67;65.45;98085.43;238974;180;137656;-56
2024/03/30 06:05:44;;;;;;;17.50;7.10;;;;;;;11.89;65.50;98087.42;239046;180;137638;-57
2024/03/30 06:10:47;;;;;;;20.70;7.50;;;;;;;12.20;65.13;98086.98;239193;180;151872;-56
2024/03/30 06:16:00;;;;;;;17.60;6.50;;;;;;;12.54;64.79;98089.05;238565;180;139021;-57
2024/03/30 06:21:04;;;;;;;132.00;115.50;;;;;;;12.85;64.71;98082.16;238974;180;139674;-55
2024/03/30 06:26:07;;;;;;;32.50;13.70;;;;;;;13.16;64.43;98082.48;239051;180;151361;-57
2024/03/30 06:31:10;;;;;;;72.30;48.90;;;;;;;13.42;64.11;98083.57;239136;180;137395;-57
2024/03/30 06:36:13;;;;;;;24.70;8.30;;;;;;;13.67;63.67;98076.52;239113;180;138356;-56
2024/03/30 06:46:38;;;;;;;16.20;6.70;;;;;;;14.17;62.87;98076.73;239146;180;137747;-58
2024/03/30 06:51:41;;;;;;;24.40;6.40;;;;;;;14.38;62.67;98076.59;239127;180;138413;-55
2024/03/30 06:56:44;;;;;;;24.50;6.00;;;;;;;14.60;62.31;98072.64;238926;180;151186;-58
2024/03/30 07:01:47;;;;;;;23.40;7.10;;;;;;;14.82;61.80;98072.69;238875;180;138091;-58
2024/03/30 07:06:50;;;;;;;173.40;124.90;;;;;;;15.07;61.81;98069.91;238948;180;138022;-58
2024/03/30 07:11:53;;;;;;;33.30;13.50;;;;;;;15.32;61.25;98078.73;238684;180;151749;-58
2024/03/30 07:16:56;;;;;;;141.20;102.70;;;;;;;15.58;60.84;98091.77;238098;180;138143;-58
2024/03/30 07:22:18;;;;;;;36.00;13.00;;;;;;;15.84;60.40;98093.73;239096;180;138115;-58
2024/03/30 07:27:22;;;;;;;53.00;25.30;;;;;;;16.08;59.97;98096.36;238938;180;152130;-59
2024/03/30 07:32:25;;;;;;;31.00;7.90;;;;;;;16.28;58.88;98102.06;239115;179;138214;-59
2024/03/30 07:37:28;;;;;;;32.30;6.70;;;;;;;16.45;57.87;98099.96;239021;180;137495;-61
2024/03/30 07:42:31;;;;;;;34.70;7.10;;;;;;;16.63;57.38;98095.80;239048;180;151981;-60
2024/03/30 07:47:37;;;;;;;32.30;6.40;;;;;;;16.82;56.81;98104.84;239053;173;136659;-61
2024/03/30 07:52:40;;;;;;;34.40;6.30;;;;;;;17.02;55.67;98099.35;239220;180;138413;-59
2024/03/30 07:57:43;;;;;;;500.40;425.30;;;;;;;17.22;55.33;98100.27;239148;180;152420;-59
2024/03/30 08:02:46;;;;;;;192.00;125.30;;;;;;;17.46;54.89;98099.41;239167;180;137283;-57
2024/03/30 08:07:49;;;;;;;39.00;10.40;;;;;;;17.71;54.57;98101.11;239084;172;138396;-60
2024/03/30 08:12:52;;;;;;;43.30;6.90;;;;;;;17.91;53.55;98101.23;239111;176;151808;-59
2024/03/30 08:17:55;;;;;;;44.60;7.20;;;;;;;18.11;52.30;98106.63;239073;180;137993;-60
2024/03/30 08:22:58;;;;;;;39.80;5.80;;;;;;;18.30;51.65;98102.88;239050;180;137662;-59
2024/03/30 08:28:02;;;;;;;34.20;7.00;;;;;;;18.51;50.81;98090.95;238845;180;151610;-60
2024/03/30 08:33:06;;;;;;;43.00;5.80;;;;;;;18.74;49.81;98099.45;239061;180;137521;-61
2024/03/30 08:38:09;;;;;;;42.80;9.70;;;;;;;18.93;48.90;98105.20;239079;180;138242;-60
2024/03/30 08:43:12;;;;;;;40.20;6.30;;;;;;;19.16;48.46;98113.11;239079;180;152282;-60
2024/03/30 08:48:15;;;;;;;45.60;6.00;;;;;;;19.33;47.57;98106.35;239123;180;137407;-60
2024/03/30 08:53:18;;;;;;;44.20;7.60;;;;;;;19.55;47.18;98100.59;239096;180;137018;-59
2024/03/30 08:58:21;;;;;;;54.30;6.90;;;;;;;19.74;46.51;98089.21;239022;180;151940;-59
2024/03/30 09:03:24;;;;;;;44.90;9.50;;;;;;;19.93;45.58;98082.17;238955;180;137617;-57
2024/03/30 09:08:27;;;;;;;50.00;6.90;;;;;;;20.12;44.93;98077.64;239085;180;138729;-61
2024/03/30 09:13:30;;;;;;;44.40;6.50;;;;;;;20.32;44.13;98075.30;239088;180;151389;-61
2024/03/30 09:18:33;;;;;;;41.30;6.40;;;;;;;20.49;44.13;98069.26;239018;177;137241;-62
2024/03/30 09:23:36;;;;;;;62.30;17.30;;;;;;;20.72;43.71;98066.58;239184;180;138010;-63
2024/03/30 09:28:39;;;;;;;115.80;71.00;;;;;;;20.92;42.78;98059.98;239064;180;151370;-66
2024/03/30 09:33:43;;;;;;;46.50;8.00;;;;;;;21.12;42.41;98061.45;239156;177;139237;-60
2024/03/30 09:38:46;;;;;;;45.40;7.00;;;;;;;21.28;41.83;98063.02;239063;180;136874;-64
2024/03/30 09:43:51;;;;;;;54.50;7.80;;;;;;;21.44;41.82;98056.38;239105;180;151919;-64
2024/03/30 09:48:56;;;;;;;58.30;10.30;;;;;;;21.61;42.28;98055.98;239115;180;141500;-56
2024/03/30 09:54:01;;;;;;;70.20;8.60;;;;;;;21.78;41.58;98057.40;239024;180;137077;-57
2024/03/30 09:59:05;;;;;;;43.70;10.00;;;;;;;21.92;39.93;98057.81;239043;180;152388;-55
2024/03/30 10:04:08;;;;;;;50.10;8.20;;;;;;;22.06;39.61;98053.45;239171;180;139802;-56
2024/03/30 10:09:15;;;;;;;56.10;8.20;;;;;;;22.22;40.25;98046.97;239066;180;137780;-52
2024/03/30 10:14:26;;;;;;;55.10;9.30;;;;;;;22.46;40.08;98039.15;238857;180;151472;-52
2024/03/30 10:19:32;;;;;;;210.70;134.80;;;;;;;22.78;39.50;98041.91;239036;180;136893;-63
2024/03/30 10:24:35;;;;;;;52.80;13.60;;;;;;;23.02;39.27;98039.38;239196;180;138409;-62
2024/03/30 10:29:38;;;;;;;62.30;9.70;;;;;;;23.30;39.14;98031.37;239074;176;151340;-60
2024/03/30 10:34:41;;;;;;;66.50;10.40;;;;;;;23.57;37.12;98025.33;238990;180;137820;-58
2024/03/30 10:39:45;;;;;;;65.10;10.30;;;;;;;23.76;36.48;98014.15;238852;180;138225;-56
2024/03/30 10:44:58;;;;;;;71.30;14.40;;;;;;;24.03;36.85;98010.77;239057;180;151461;-59
2024/03/30 10:50:02;;;;;;;67.00;13.50;;;;;;;24.24;37.38;98008.72;239049;180;137086;-60
2024/03/30 10:55:06;;;;;;;77.30;11.00;;;;;;;24.36;35.89;98007.05;239177;180;138543;-60
2024/03/30 11:00:10;;;;;;;68.60;9.80;;;;;;;24.40;34.06;98002.48;239256;180;151464;-59
2024/03/30 11:05:14;;;;;;;76.40;22.40;;;;;;;24.56;33.47;98001.35;238995;180;137893;-58
2024/03/30 11:10:17;;;;;;;55.70;10.50;;;;;;;24.73;32.78;97990.58;238919;180;138491;-57
2024/03/30 11:15:23;;;;;;;63.50;9.10;;;;;;;24.75;31.94;97990.20;239013;177;151659;-59
2024/03/30 11:20:49;;;;;;;66.60;9.20;;;;;;;24.87;31.35;97978.67;238825;180;137455;-59
2024/03/30 11:26:09;;;;;;;68.10;10.60;;;;;;;25.04;31.11;97968.48;238880;180;137085;-59
2024/03/30 11:31:25;;;;;;;57.80;8.10;;;;;;;25.22;30.10;97967.11;238953;180;151396;-60
2024/03/30 11:36:44;;;;;;;64.60;8.90;;;;;;;25.37;28.44;97961.61;239016;180;138707;-57
2024/03/30 11:41:54;;;;;;;49.50;8.40;;;;;;;25.40;27.14;97953.63;239042;180;137533;-55
2024/03/30 11:46:58;;;;;;;44.10;7.10;;;;;;;25.58;26.77;97948.73;239045;180;152299;-60
2024/03/30 11:52:00;;;;;;;51.00;7.90;;;;;;;25.78;24.43;97942.41;239000;180;137711;-57
2024/03/30 11:57:04;;;;;;;54.40;7.00;;;;;;;25.91;23.26;97937.05;238987;180;137937;-56
2024/03/30 12:02:22;;;;;;;51.90;7.80;;;;;;;26.06;22.05;97941.27;239007;180;151918;-58
2024/03/30 12:07:34;;;;;;;50.60;7.20;;;;;;;26.32;21.37;97942.98;238996;180;137895;-51
2024/03/30 12:12:37;;;;;;;55.50;8.00;;;;;;;26.59;21.27;97936.40;238990;180;138061;-58
2024/03/30 12:17:41;;;;;;;52.00;8.00;;;;;;;26.70;20.07;97941.61;239063;180;151758;-59
2024/03/30 12:22:44;;;;;;;69.30;24.20;;;;;;;26.65;20.25;97942.66;238881;177;137726;-56
2024/03/30 12:27:47;;;;;;;47.90;6.50;;;;;;;26.76;20.60;97934.66;238941;180;137043;-62
2024/03/30 12:32:51;;;;;;;48.60;6.20;;;;;;;26.76;20.30;97939.95;238968;180;151100;-63
2024/03/30 12:37:54;;;;;;;62.60;15.60;;;;;;;26.66;20.82;97930.91;238954;180;137168;-58
2024/03/30 12:42:59;;;;;;;43.20;7.20;;;;;;;26.42;20.97;97930.56;239077;180;137884;-62
2024/03/30 12:48:02;;;;;;;39.90;6.90;;;;;;;26.08;20.59;97938.77;239017;180;152942;-62
2024/03/30 12:53:06;;;;;;;45.80;6.50;;;;;;;25.75;20.59;97954.95;238751;180;140548;-61
2024/03/30 12:58:31;;;;;;;37.10;6.90;;;;;;;25.69;21.41;97960.02;239013;180;136751;-64
2024/03/30 13:03:39;;;;;;;40.90;6.00;;;;;;;25.81;21.57;97962.35;238529;180;152536;-60
2024/03/30 13:08:50;;;;;;;52.00;7.20;;;;;;;25.95;22.16;97960.67;238962;180;138252;-64
2024/03/30 13:13:56;;;;;;;53.10;7.10;;;;;;;25.93;21.74;97970.86;238869;179;136932;-62
2024/03/30 13:18:59;;;;;;;54.00;6.80;;;;;;;26.02;21.97;97968.61;238931;180;152535;-62
2024/03/30 13:24:06;;;;;;;51.40;6.40;;;;;;;25.88;22.05;97962.31;238934;180;136736;-59
2024/03/30 13:29:09;;;;;;;58.80;8.10;;;;;;;25.57;21.93;97965.03;238879;180;137359;-61
2024/03/30 13:34:14;;;;;;;57.90;7.80;;;;;;;25.34;22.04;97965.56;238825;180;151561;-62
2024/03/30 13:39:17;;;;;;;59.30;8.30;;;;;;;25.13;22.55;97970.27;238848;180;137711;-62
2024/03/30 13:44:20;;;;;;;57.60;9.00;;;;;;;24.98;22.98;97972.20;239055;180;138122;-62
2024/03/30 13:49:23;;;;;;;65.00;9.30;;;;;;;25.02;23.36;97978.71;239051;180;151848;-63
2024/03/30 13:54:26;;;;;;;67.50;8.90;;;;;;;25.15;22.72;97970.66;238933;176;139119;-61
2024/03/30 13:59:29;;;;;;;63.70;9.00;;;;;;;25.30;22.27;97960.89;238928;180;137861;-62
2024/03/30 14:04:33;;;;;;;67.10;8.50;;;;;;;25.27;22.66;97952.52;238892;180;152549;-62
2024/03/30 14:09:36;;;;;;;61.20;8.00;;;;;;;25.10;22.55;97951.44;238873;180;137620;-59
2024/03/30 14:14:39;;;;;;;58.30;8.00;;;;;;;24.99;23.01;97946.65;238872;180;137655;-63
2024/03/30 14:19:42;;;;;;;54.90;8.00;;;;;;;24.91;23.34;97942.17;238979;180;151293;-62
2024/03/30 14:24:45;;;;;;;74.80;9.10;;;;;;;24.81;23.65;97940.48;238990;178;137750;-63
2024/03/30 14:29:50;;;;;;;52.50;8.10;;;;;;;24.69;23.93;97934.27;238984;180;137957;-61
2024/03/30 14:34:54;;;;;;;62.00;8.20;;;;;;;24.53;24.08;97925.65;238924;180;154685;-61
2024/03/30 14:39:57;;;;;;;64.10;7.20;;;;;;;24.45;24.68;97921.77;239025;180;137570;-61
2024/03/30 14:45:01;;;;;;;54.90;8.40;;;;;;;24.32;24.93;97920.33;238881;180;138412;-58
2024/03/30 14:50:05;;;;;;;55.50;7.90;;;;;;;24.21;25.45;97922.84;239053;180;151204;-61
2024/03/30 14:55:08;;;;;;;55.70;13.40;;;;;;;24.18;25.92;97923.13;238902;177;139325;-55
2024/03/30 15:00:11;;;;;;;58.70;8.10;;;;;;;24.11;26.13;97913.23;239006;180;138053;-58
2024/03/30 15:05:16;;;;;;;49.10;6.70;;;;;;;23.98;25.95;97920.00;239049;180;152327;-57
2024/03/30 15:10:19;;;;;;;;;;;;;;;23.88;26.27;97915.05;239041;176;137800;-55
2024/03/30 15:15:22;;;;;;;41.90;6.30;;;;;;;23.82;26.63;97911.58;239146;179;136097;-54
2024/03/30 15:20:25;;;;;;;48.80;7.70;;;;;;;23.77;26.92;97907.14;238974;180;152960;-54
2024/03/30 15:25:28;;;;;;;63.10;10.90;;;;;;;23.76;26.96;97904.59;239008;180;139599;-58
2024/03/30 15:35:57;;;;;;;55.30;7.80;;;;;;;23.67;27.31;97905.25;239090;180;152580;-58
2024/03/30 15:41:01;;;;;;;49.70;7.70;;;;;;;23.65;27.39;97898.48;239020;180;136867;-59
2024/03/30 15:46:06;;;;;;;52.40;7.90;;;;;;;23.63;27.39;97897.60;239125;180;138422;-59
2024/03/30 15:51:09;;;;;;;48.10;7.60;;;;;;;23.67;27.90;97894.41;238950;180;151121;-60
2024/03/30 15:56:12;;;;;;;51.40;7.00;;;;;;;23.73;28.10;97894.26;239170;180;136893;-61
2024/03/30 16:01:15;;;;;;;52.70;7.90;;;;;;;23.80;27.81;97896.86;238905;180;137424;-63
2024/03/30 16:06:19;;;;;;;49.20;7.50;;;;;;;23.89;27.85;97897.98;239152;180;153669;-63
2024/03/30 16:11:22;;;;;;;56.90;8.10;;;;;;;23.92;27.87;97895.74;239182;179;141352;-63
2024/03/30 16:16:25;;;;;;;51.70;7.10;;;;;;;23.93;27.68;97893.94;239184;180;137280;-62
2024/03/30 16:21:28;;;;;;;55.40;8.50;;;;;;;23.89;27.84;97893.18;239012;180;152375;-63
2024/03/30 16:26:31;;;;;;;58.60;7.90;;;;;;;23.83;28.28;97895.23;239054;180;137053;-62
2024/03/30 16:31:34;;;;;;;58.50;8.60;;;;;;;23.77;29.03;97897.49;239219;180;140443;-63
2024/03/30 16:36:40;;;;;;;49.80;8.00;;;;;;;23.66;28.81;97898.91;239118;180;152761;-62
2024/03/30 16:41:43;;;;;;;57.70;8.40;;;;;;;23.53;29.72;97896.62;238614;180;137164;-63
2024/03/30 16:46:46;;;;;;;53.70;8.70;;;;;;;23.38;29.60;97895.83;238843;177;140172;-63
2024/03/30 16:51:49;;;;;;;52.30;7.70;;;;;;;23.22;30.63;97894.95;239196;180;151853;-63
2024/03/30 16:56:55;;;;;;;45.00;7.60;;;;;;;23.00;31.91;97896.46;239021;180;137821;-63
2024/03/30 17:01:58;;;;;;;64.50;9.30;;;;;;;22.81;30.49;97896.02;239195;180;136729;-63
2024/03/30 17:07:01;;;;;;;54.40;8.10;;;;;;;22.79;29.33;97898.64;239036;180;152671;-63
2024/03/30 17:12:04;;;;;;;43.90;7.40;;;;;;;22.80;28.83;97900.81;239100;177;137917;-63
2024/03/30 17:17:07;;;;;;;56.10;7.30;;;;;;;22.79;28.32;97904.35;239162;180;136817;-64
2024/03/30 17:22:10;;;;;;;45.40;7.00;;;;;;;22.75;28.22;97905.61;239133;180;152071;-63
2024/03/30 17:27:13;;;;;;;47.40;7.50;;;;;;;22.73;28.58;97908.95;239123;180;136867;-63
2024/03/30 17:32:16;;;;;;;42.80;7.40;;;;;;;22.62;28.82;97908.27;239140;180;137986;-63
2024/03/30 17:37:20;;;;;;;49.90;7.40;;;;;;;22.53;28.67;97915.67;239156;180;152550;-62
2024/03/30 17:42:23;;;;;;;54.00;7.50;;;;;;;22.45;28.92;97927.09;238980;180;137587;-63
2024/03/30 17:47:29;;;;;;;51.40;8.40;;;;;;;22.39;29.14;97934.97;238913;177;137904;-63
2024/03/30 17:52:37;;;;;;;47.10;7.50;;;;;;;22.27;29.88;97938.80;239021;180;151390;-63
2024/03/30 17:57:40;;;;;;;49.50;7.90;;;;;;;22.12;30.46;97943.61;238726;180;137957;-63
2024/03/30 18:02:48;;;;;;;46.00;7.90;;;;;;;22.03;31.07;97946.70;238723;180;138176;-62
2024/03/30 18:07:51;;;;;;;41.40;7.70;;;;;;;21.90;31.83;97944.71;239072;180;152851;-63
2024/03/30 18:12:54;;;;;;;49.90;9.30;;;;;;;21.78;32.01;97950.23;239192;180;137888;-63
2024/03/30 18:17:57;;;;;;;45.70;8.60;;;;;;;21.64;33.13;97949.63;238639;180;137172;-62
2024/03/30 18:23:01;;;;;;;44.90;7.50;;;;;;;21.49;34.00;97964.13;239079;180;152905;-64
2024/03/30 18:28:05;;;;;;;51.30;7.90;;;;;;;21.36;34.00;97964.30;239129;180;137282;-63
2024/03/30 18:33:11;;;;;;;51.80;7.90;;;;;;;21.28;34.14;97983.13;238980;180;137001;-64
2024/03/30 18:38:15;;;;;;;51.00;7.70;;;;;;;21.19;33.79;97997.17;238942;180;151082;-63
2024/03/30 18:43:18;;;;;;;53.70;7.40;;;;;;;21.16;33.78;98001.98;238824;180;138876;-63
2024/03/30 18:48:21;;;;;;;52.20;8.10;;;;;;;21.14;34.20;97998.60;239181;180;137882;-63
2024/03/30 18:53:24;;;;;;;48.20;8.10;;;;;;;21.07;33.63;98003.39;239186;180;152511;-63
2024/03/30 18:58:28;;;;;;;49.80;8.00;;;;;;;21.07;33.35;98001.75;239156;180;136977;-63
2024/03/30 19:03:31;;;;;;;39.80;7.50;;;;;;;21.08;33.28;98004.51;238904;180;136771;-63
2024/03/30 19:08:34;;;;;;;45.30;7.60;;;;;;;21.05;33.58;98013.54;239200;180;151774;-63
2024/03/30 19:13:37;;;;;;;46.10;7.50;;;;;;;21.00;33.55;98007.65;239141;180;137188;-64
2024/03/30 19:18:40;;;;;;;52.80;7.30;;;;;;;20.97;34.06;98004.73;239181;180;136934;-63
2024/03/30 19:23:44;;;;;;;42.10;8.00;;;;;;;20.89;34.58;98001.22;239120;180;151838;-62
2024/03/30 19:28:47;;;;;;;42.70;7.10;;;;;;;20.79;35.16;97993.08;239128;176;137721;-62
2024/03/30 19:33:50;;;;;;;38.70;7.50;;;;;;;20.68;35.56;97993.33;238892;180;138105;-62
2024/03/30 19:38:54;;;;;;;45.40;7.50;;;;;;;20.55;36.02;97991.67;239050;180;152775;-62
2024/03/30 19:43:57;;;;;;;39.80;7.20;;;;;;;20.43;36.69;97990.21;239127;180;137673;-62
2024/03/30 19:49:00;;;;;;;39.60;7.20;;;;;;;20.32;37.26;97986.05;239065;180;137793;-62
2024/03/30 19:54:03;;;;;;;34.30;6.90;;;;;;;20.31;37.84;97984.73;239084;179;152013;-62
2024/03/30 19:59:07;;;;;;;36.60;6.30;;;;;;;20.28;38.45;97980.09;239053;180;138710;-62
2024/03/30 20:04:10;;;;;;;30.30;6.90;;;;;;;20.27;38.72;97984.04;239022;180;138256;-62
2024/03/30 20:09:13;;;;;;;35.70;6.70;;;;;;;20.29;38.96;97982.67;239075;176;152074;-62
2024/03/30 20:14:16;;;;;;;26.00;5.40;;;;;;;20.24;39.56;97982.70;239010;180;136912;-65
2024/03/30 20:19:19;;;;;;;30.00;5.30;;;;;;;20.21;39.62;98002.98;239076;180;138314;-61
2024/03/30 20:24:23;;;;;;;36.10;6.00;;;;;;;20.23;39.70;98002.98;239064;177;151275;-62
2024/03/30 20:29:26;;;;;;;218.40;160.70;;;;;;;20.27;40.09;98003.92;239027;180;138483;-60
2024/03/30 20:34:29;;;;;;;279.70;196.20;;;;;;;20.29;40.33;98003.14;238905;180;138389;-61
2024/03/30 20:39:33;;;;;;;42.90;8.20;;;;;;;20.31;40.25;97994.67;238980;180;152731;-60
2024/03/30 20:44:37;;;;;;;36.10;6.60;;;;;;;20.24;40.21;97991.33;238904;180;140781;-61
2024/03/30 20:49:39;;;;;;;30.90;5.50;;;;;;;20.08;40.49;97985.73;239070;180;136863;-61
2024/03/30 20:54:43;;;;;;;46.30;7.10;;;;;;;19.90;40.90;97989.44;239026;179;152338;-62
2024/03/30 20:59:46;;;;;;;34.10;6.00;;;;;;;19.74;41.58;97992.60;239060;180;137677;-62
2024/03/30 21:04:48;;;;;;;37.10;5.60;;;;;;;19.66;41.40;97994.83;239023;180;138224;-61
2024/03/30 21:09:51;;;;;;;29.10;6.20;;;;;;;19.69;41.12;97992.29;238998;180;151557;-61
2024/03/30 21:14:54;;;;;;;34.40;6.00;;;;;;;19.73;40.96;97997.02;239058;180;138056;-61
2024/03/30 21:20:01;;;;;;;37.40;6.80;;;;;;;19.73;40.98;97990.95;239042;180;136770;-61
2024/03/30 21:25:07;;;;;;;32.50;5.70;;;;;;;19.71;40.77;97997.48;239009;177;151404;-61
2024/03/30 21:30:11;;;;;;;33.20;5.40;;;;;;;19.73;40.55;98000.30;238992;177;136965;-60
2024/03/30 21:35:15;;;;;;;33.10;5.60;;;;;;;19.78;40.61;97997.90;238983;180;140213;-60
2024/03/30 21:40:18;;;;;;;38.70;5.80;;;;;;;19.77;40.43;97996.73;238865;180;153281;-61
2024/03/30 21:45:21;;;;;;;27.00;4.60;;;;;;;19.74;40.50;97994.73;238948;180;136693;-62
2024/03/30 21:50:24;;;;;;;29.40;5.10;;;;;;;19.73;40.60;97992.33;239005;180;137272;-61
2024/03/30 21:55:27;;;;;;;28.80;5.80;;;;;;;19.71;40.40;97989.03;239031;179;151740;-61
2024/03/30 22:00:30;;;;;;;32.60;5.60;;;;;;;19.64;40.81;97991.91;239048;180;137777;-61
2024/03/30 22:05:36;;;;;;;30.90;5.00;;;;;;;19.58;40.86;97995.86;239013;180;137763;-60
2024/03/30 22:10:40;;;;;;;32.40;5.40;;;;;;;19.52;41.15;97994.89;238841;180;151920;-61
2024/03/30 22:15:43;;;;;;;36.50;5.70;;;;;;;19.47;41.11;97992.70;239022;180;137783;-62
2024/03/30 22:20:46;;;;;;;32.40;5.60;;;;;;;19.39;41.22;97990.10;239036;179;137520;-58
2024/03/30 22:25:49;;;;;;;34.50;5.80;;;;;;;19.32;41.45;97991.52;239042;177;152133;-61
2024/03/30 22:30:52;;;;;;;33.00;5.20;;;;;;;19.23;41.72;97992.41;238984;180;139821;-60
2024/03/30 22:35:55;;;;;;;33.10;5.60;;;;;;;19.18;41.82;97997.94;239038;177;137129;-61
2024/03/30 22:41:02;;;;;;;31.00;5.60;;;;;;;19.12;41.94;97995.36;239012;180;152130;-60
2024/03/30 22:46:05;;;;;;;32.00;6.10;;;;;;;19.04;42.24;97994.65;238920;180;137078;-61
2024/03/30 22:51:09;;;;;;;37.80;5.70;;;;;;;18.99;42.35;97987.40;239017;180;138404;-61
2024/03/30 22:56:12;;;;;;;28.10;6.40;;;;;;;18.91;42.60;97984.86;239107;180;151625;-61
2024/03/30 23:01:15;;;;;;;32.70;5.60;;;;;;;18.83;42.63;97991.48;238887;180;137888;-61
2024/03/30 23:06:18;;;;;;;23.20;5.10;;;;;;;18.76;43.02;97990.70;238860;180;137633;-61
2024/03/30 23:11:21;;;;;;;38.60;6.00;;;;;;;18.69;43.15;97982.61;239020;177;151502;-61
2024/03/30 23:16:24;;;;;;;29.80;5.20;;;;;;;18.66;43.35;97977.86;239020;177;137673;-61
2024/03/30 23:21:27;;;;;;;36.00;6.30;;;;;;;18.66;43.08;97981.30;238799;180;136802;-61
2024/03/30 23:26:30;;;;;;;32.90;5.10;;;;;;;18.63;43.38;97980.27;239031;180;153173;-60
2024/03/30 23:31:33;;;;;;;28.30;5.10;;;;;;;18.59;43.40;97974.08;239071;180;137118;-59